Time;durP1;ratioP1;P1;durP2;ratioP2;P2;SDS_P1;SDS_P2;PMS_P1;PMS_P2;Temp;Humidity;BMP_temperature;BMP_pressure;BME280_temperature;BME280_humidity;BME280_pressure;Samples;Min_cycle;Max_cycle;Signal;HPM_P1;HPM_P2
2022/05/13 00:03:22;;;;;;;10.05;2.95;;;;;;;;;;4402788;80;28533;-77
2022/05/13 00:09:56;;;;;;;9.15;2.80;;;;;;;;;;4312798;80;28474;-77
2022/05/13 00:15:29;;;;;;;7.70;3.08;;;;;;;;;;4323979;80;28473;-77
2022/05/13 00:21:29;;;;;;;9.58;3.15;;;;;;;;;;4289234;82;28558;-75
2022/05/13 00:27:30;;;;;;;8.83;3.00;;;;;;;;;;4339828;81;28509;-76
2022/05/13 00:33:32;;;;;;;9.53;2.98;;;;;;;;;;4390949;81;28520;-77
2022/05/13 00:39:33;;;;;;;5.90;3.10;;;;;;;;;;4339698;82;28518;-75
2022/05/13 00:45:34;;;;;;;10.93;3.45;;;;;;;;;;4338971;82;28466;-76
2022/05/13 00:51:37;;;;;;;8.75;3.52;;;;;;;;;;4334226;82;28493;-77
2022/05/13 00:57:39;;;;;;;9.00;3.05;;;;;;;;;;4330029;82;28513;-76
2022/05/13 01:03:40;;;;;;;6.37;2.75;;;;;;;;;;4322058;82;28492;-77
2022/05/13 01:09:43;;;;;;;6.53;2.60;;;;;;;;;;4350028;82;28522;-76
2022/05/13 01:15:45;;;;;;;7.42;2.80;;;;;;;;;;4352341;82;28544;-77
2022/05/13 01:21:48;;;;;;;6.62;3.40;;;;;;;;;;4352249;82;28588;-77
2022/05/13 01:27:49;;;;;;;10.50;3.10;;;;;;;;;;4352139;81;28507;-77
2022/05/13 01:33:51;;;;;;;7.70;3.47;;;;;;;;;;4352415;82;28461;-78
2022/05/13 01:39:51;;;;;;;6.37;3.25;;;;;;;;;;4410986;80;28482;-79
2022/05/13 01:45:53;;;;;;;14.00;3.22;;;;;;;;;;4362981;81;28435;-78
2022/05/13 01:51:54;;;;;;;9.35;2.72;;;;;;;;;;4399428;81;28513;-77
2022/05/13 01:57:55;;;;;;;7.03;3.33;;;;;;;;;;4425176;80;28565;-77
2022/05/13 02:03:56;;;;;;;8.28;3.10;;;;;;;;;;4382900;80;28539;-77
2022/05/13 02:09:57;;;;;;;7.47;3.45;;;;;;;;;;4425920;80;28478;-77
2022/05/13 02:15:58;;;;;;;7.50;2.98;;;;;;;;;;4413212;80;28557;-79
2022/05/13 02:21:59;;;;;;;7.08;3.00;;;;;;;;;;4260564;83;28489;-76
2022/05/13 02:28:00;;;;;;;12.13;2.83;;;;;;;;;;4267216;83;28505;-77
2022/05/13 02:34:01;;;;;;;8.35;2.52;;;;;;;;;;4287736;82;28493;-77
2022/05/13 02:40:02;;;;;;;6.58;2.55;;;;;;;;;;4341344;81;28505;-77
2022/05/13 02:46:03;;;;;;;6.97;2.95;;;;;;;;;;4333108;80;28470;-77
2022/05/13 02:52:04;;;;;;;7.80;2.77;;;;;;;;;;4325628;82;28537;-78
2022/05/13 02:58:05;;;;;;;7.70;2.70;;;;;;;;;;4289648;82;28512;-77
2022/05/13 03:04:06;;;;;;;6.50;2.75;;;;;;;;;;4417907;80;28497;-78
2022/05/13 03:10:08;;;;;;;6.47;2.77;;;;;;;;;;4436698;80;28567;-78
2022/05/13 03:16:10;;;;;;;9.18;3.30;;;;;;;;;;4389447;81;28505;-76
2022/05/13 03:22:11;;;;;;;6.42;2.25;;;;;;;;;;4298365;82;28515;-76
2022/05/13 03:28:12;;;;;;;4.22;2.75;;;;;;;;;;4287225;83;28624;-77
2022/05/13 03:34:13;;;;;;;5.92;2.92;;;;;;;;;;4364721;80;28496;-77
2022/05/13 03:40:16;;;;;;;8.15;2.80;;;;;;;;;;4372636;80;28542;-76
2022/05/13 03:46:17;;;;;;;5.90;2.65;;;;;;;;;;4331203;82;28549;-74
2022/05/13 03:52:18;;;;;;;5.97;2.65;;;;;;;;;;4384424;80;28522;-76
2022/05/13 03:58:18;;;;;;;10.23;2.40;;;;;;;;;;4425160;79;28516;-76
2022/05/13 04:04:22;;;;;;;8.73;2.65;;;;;;;;;;4387533;80;28514;-78
2022/05/13 04:10:22;;;;;;;8.43;3.00;;;;;;;;;;4328098;81;28535;-75
2022/05/13 04:16:23;;;;;;;6.20;2.75;;;;;;;;;;4371014;81;28454;-75
2022/05/13 04:22:24;;;;;;;8.50;2.77;;;;;;;;;;4330197;81;28541;-74
2022/05/13 04:28:25;;;;;;;10.13;2.95;;;;;;;;;;4397606;79;28491;-74
2022/05/13 04:34:28;;;;;;;9.35;2.75;;;;;;;;;;4369255;80;28534;-74
2022/05/13 04:40:29;;;;;;;8.25;2.65;;;;;;;;;;4417577;80;28516;-76
2022/05/13 04:46:30;;;;;;;9.20;2.80;;;;;;;;;;4389816;80;28481;-75
2022/05/13 04:52:31;;;;;;;9.93;2.75;;;;;;;;;;4334508;80;28489;-76
2022/05/13 04:58:32;;;;;;;12.40;2.83;;;;;;;;;;4407379;80;28630;-75
2022/05/13 05:04:33;;;;;;;8.38;2.83;;;;;;;;;;4370891;80;28500;-76
2022/05/13 05:10:33;;;;;;;7.78;2.87;;;;;;;;;;4387944;80;28546;-75
2022/05/13 05:16:34;;;;;;;7.75;2.90;;;;;;;;;;4385385;81;28549;-75
2022/05/13 05:22:35;;;;;;;7.65;3.30;;;;;;;;;;4393784;80;28587;-75
2022/05/13 05:28:39;;;;;;;10.70;3.55;;;;;;;;;;4397651;80;28526;-75
2022/05/13 05:34:40;;;;;;;12.13;3.60;;;;;;;;;;4355472;80;28530;-75
2022/05/13 05:40:41;;;;;;;11.22;3.40;;;;;;;;;;4387515;80;28615;-75
2022/05/13 05:46:42;;;;;;;11.25;3.37;;;;;;;;;;4333344;81;28561;-74
2022/05/13 05:52:43;;;;;;;7.17;3.35;;;;;;;;;;4379816;80;28530;-75
2022/05/13 05:58:44;;;;;;;7.75;3.92;;;;;;;;;;4391778;80;28488;-73
2022/05/13 06:04:45;;;;;;;10.58;3.80;;;;;;;;;;4311082;81;28496;-74
2022/05/13 06:10:46;;;;;;;12.33;4.33;;;;;;;;;;4333346;81;28538;-74
2022/05/13 06:16:48;;;;;;;6.80;3.30;;;;;;;;;;4331340;81;28540;-74
2022/05/13 06:22:49;;;;;;;10.45;3.40;;;;;;;;;;4315811;82;28501;-73
2022/05/13 06:28:51;;;;;;;9.63;3.12;;;;;;;;;;4325724;81;28508;-74
2022/05/13 06:34:51;;;;;;;12.45;3.62;;;;;;;;;;4369261;80;28563;-75
2022/05/13 06:40:53;;;;;;;9.45;2.98;;;;;;;;;;4415074;80;28526;-74
2022/05/13 06:46:54;;;;;;;6.90;2.85;;;;;;;;;;4452093;80;28557;-74
2022/05/13 06:52:55;;;;;;;9.65;2.30;;;;;;;;;;4399378;80;28506;-74
2022/05/13 06:58:56;;;;;;;6.15;2.40;;;;;;;;;;4349470;80;28501;-72
2022/05/13 07:04:57;;;;;;;9.10;2.50;;;;;;;;;;4437135;80;28528;-73
2022/05/13 07:10:58;;;;;;;9.58;2.55;;;;;;;;;;4390426;80;28524;-73
2022/05/13 07:16:58;;;;;;;11.83;3.60;;;;;;;;;;4347904;81;28593;-73
2022/05/13 07:22:59;;;;;;;12.82;4.30;;;;;;;;;;4393890;81;28474;-73
2022/05/13 07:29:00;;;;;;;11.50;3.52;;;;;;;;;;4393860;81;28518;-74
2022/05/13 07:35:02;;;;;;;10.53;3.75;;;;;;;;;;4393625;81;28494;-75
2022/05/13 07:41:20;;;;;;;8.18;3.22;;;;;;;;;;4386459;81;28489;-76
2022/05/13 07:47:20;;;;;;;14.35;3.72;;;;;;;;;;4385308;80;28486;-73
2022/05/13 07:53:21;;;;;;;11.03;2.83;;;;;;;;;;4373751;81;28489;-74
2022/05/13 07:59:22;;;;;;;12.35;3.17;;;;;;;;;;4360563;80;28544;-74
2022/05/13 08:05:24;;;;;;;13.70;3.52;;;;;;;;;;4350134;80;28510;-73
2022/05/13 08:11:27;;;;;;;10.43;3.30;;;;;;;;;;4309794;82;28480;-74
2022/05/13 08:17:30;;;;;;;5.47;3.10;;;;;;;;;;4286910;82;28525;-74
2022/05/13 08:23:31;;;;;;;9.68;3.50;;;;;;;;;;4316390;80;28505;-74
2022/05/13 08:29:35;;;;;;;13.13;3.75;;;;;;;;;;4382427;80;28504;-74
2022/05/13 08:35:37;;;;;;;10.00;3.72;;;;;;;;;;4354494;81;28523;-75
2022/05/13 08:41:40;;;;;;;9.48;3.60;;;;;;;;;;4354379;81;28477;-75
2022/05/13 08:47:46;;;;;;;7.50;3.33;;;;;;;;;;4366130;80;28543;-75
2022/05/13 08:53:59;;;;;;;10.75;3.70;;;;;;;;;;4284865;80;28555;-75
2022/05/13 09:00:04;;;;;;;9.05;3.70;;;;;;;;;;4308042;80;28587;-77
2022/05/13 09:06:07;;;;;;;13.75;3.58;;;;;;;;;;4342431;80;28579;-77
2022/05/13 09:12:10;;;;;;;9.10;3.30;;;;;;;;;;4370000;80;28457;-77
2022/05/13 09:18:14;;;;;;;9.25;3.15;;;;;;;;;;4378821;80;28510;-76
2022/05/13 09:24:15;;;;;;;7.37;2.60;;;;;;;;;;4326493;80;28519;-78
2022/05/13 09:30:17;;;;;;;9.48;3.65;;;;;;;;;;4375481;80;28509;-78
2022/05/13 09:36:23;;;;;;;8.18;3.27;;;;;;;;;;4359409;80;28514;-77
2022/05/13 09:42:26;;;;;;;7.55;3.08;;;;;;;;;;4359351;80;28514;-77
2022/05/13 09:48:27;;;;;;;14.68;3.70;;;;;;;;;;4385596;80;28490;-77
2022/05/13 09:54:31;;;;;;;7.15;3.52;;;;;;;;;;4357719;80;28478;-78
2022/05/13 10:00:34;;;;;;;9.50;3.77;;;;;;;;;;4366123;80;28550;-77
2022/05/13 10:06:35;;;;;;;8.75;3.75;;;;;;;;;;4347638;80;28532;-77
2022/05/13 10:19:19;;;;;;;8.10;3.30;;;;;;;;;;4394985;80;28584;-77
2022/05/13 10:25:22;;;;;;;7.55;2.77;;;;;;;;;;4332480;81;28487;-77
2022/05/13 10:31:25;;;;;;;9.15;3.22;;;;;;;;;;4380988;81;28498;-77
2022/05/13 10:37:34;;;;;;;7.60;2.72;;;;;;;;;;4383045;81;28454;-78
2022/05/13 10:43:40;;;;;;;8.23;2.60;;;;;;;;;;4383008;80;28516;-76
2022/05/13 10:49:46;;;;;;;10.10;3.08;;;;;;;;;;4350104;80;28525;-76
2022/05/13 10:55:51;;;;;;;6.85;3.22;;;;;;;;;;4237437;81;28531;-77
2022/05/13 11:01:54;;;;;;;9.78;2.70;;;;;;;;;;4371768;78;28529;-77
2022/05/13 11:07:57;;;;;;;10.25;2.77;;;;;;;;;;4342860;80;28594;-78
2022/05/13 11:14:12;;;;;;;5.60;3.12;;;;;;;;;;4419748;79;28508;-76
2022/05/13 11:20:24;;;;;;;5.83;2.65;;;;;;;;;;4426328;79;28559;-76
2022/05/13 11:26:27;;;;;;;5.80;2.58;;;;;;;;;;4354028;80;28542;-77
2022/05/13 11:32:36;;;;;;;6.53;2.90;;;;;;;;;;4398949;79;28531;-75
2022/05/13 11:38:38;;;;;;;5.10;2.55;;;;;;;;;;4407378;79;28500;-79
2022/05/13 11:44:41;;;;;;;6.00;2.22;;;;;;;;;;4413093;80;28631;-79
2022/05/13 11:50:42;;;;;;;2.77;1.95;;;;;;;;;;4321951;81;28523;-79
2022/05/13 11:56:46;;;;;;;5.58;1.90;;;;;;;;;;4361597;79;28500;-79
2022/05/13 12:02:54;;;;;;;2.83;1.70;;;;;;;;;;4449765;78;28482;-79
2022/05/13 12:08:59;;;;;;;5.47;2.10;;;;;;;;;;4366131;81;28511;-79
2022/05/13 12:15:03;;;;;;;4.08;2.08;;;;;;;;;;4336486;80;28505;-81
2022/05/13 12:21:06;;;;;;;5.28;2.30;;;;;;;;;;4314139;81;28510;-82
2022/05/13 12:27:08;;;;;;;6.72;2.52;;;;;;;;;;4447030;79;28555;-79
2022/05/13 12:33:28;;;;;;;3.55;1.72;;;;;;;;;;4419914;79;28548;-81
2022/05/13 12:39:26;;;;;;;6.17;2.08;;;;;;;;;;4429098;79;28561;-79
2022/05/13 12:45:47;;;;;;;5.15;2.00;;;;;;;;;;4384659;80;28530;-80
2022/05/13 12:51:53;;;;;;;6.12;2.45;;;;;;;;;;4387622;80;28507;-76
2022/05/13 12:58:02;;;;;;;5.12;1.92;;;;;;;;;;4424764;79;28503;-80
2022/05/13 13:04:04;;;;;;;4.65;2.02;;;;;;;;;;4411183;79;28514;-79
2022/05/13 13:10:11;;;;;;;4.30;2.00;;;;;;;;;;4377207;79;28495;-79
2022/05/13 13:16:13;;;;;;;7.03;2.12;;;;;;;;;;4445480;79;28490;-81
2022/05/13 13:22:19;;;;;;;6.08;2.37;;;;;;;;;;4402318;79;28541;-80
2022/05/13 13:28:25;;;;;;;3.67;2.08;;;;;;;;;;4349594;80;28504;-81
2022/05/13 13:34:31;;;;;;;3.85;2.20;;;;;;;;;;4334759;80;28573;-78
2022/05/13 13:40:37;;;;;;;4.10;2.52;;;;;;;;;;4426101;80;28516;-79
2022/05/13 13:46:42;;;;;;;5.92;2.40;;;;;;;;;;4425306;80;28547;-79
2022/05/13 13:52:47;;;;;;;9.23;2.58;;;;;;;;;;4424286;80;28541;-79
2022/05/13 13:59:06;;;;;;;4.65;2.30;;;;;;;;;;4429182;79;28482;-79
2022/05/13 14:05:11;;;;;;;4.30;2.00;;;;;;;;;;4419888;80;28518;-80
2022/05/13 14:11:13;;;;;;;5.55;2.10;;;;;;;;;;4396459;79;28502;-79
2022/05/13 14:17:16;;;;;;;3.95;1.90;;;;;;;;;;4415109;79;28506;-80
2022/05/13 14:23:17;;;;;;;6.25;2.00;;;;;;;;;;4414014;79;28514;-79
2022/05/13 14:29:19;;;;;;;5.33;2.10;;;;;;;;;;4387071;79;28603;-79
2022/05/13 14:35:24;;;;;;;8.63;2.80;;;;;;;;;;4330760;79;28576;-80
2022/05/13 14:41:27;;;;;;;5.80;1.72;;;;;;;;;;4386937;79;28508;-80
2022/05/13 14:47:30;;;;;;;3.72;1.85;;;;;;;;;;4385620;79;28579;-79
2022/05/13 14:53:32;;;;;;;4.25;2.10;;;;;;;;;;4375783;79;28604;-80
2022/05/13 14:59:35;;;;;;;4.40;1.70;;;;;;;;;;4382723;79;28536;-80
2022/05/13 15:05:39;;;;;;;3.08;1.80;;;;;;;;;;4404640;79;28534;-81
2022/05/13 15:11:40;;;;;;;4.62;1.90;;;;;;;;;;4419991;79;28517;-79
2022/05/13 15:17:49;;;;;;;3.87;1.77;;;;;;;;;;4420936;79;28611;-81
2022/05/13 15:23:49;;;;;;;5.80;2.10;;;;;;;;;;4422411;79;28537;-79
2022/05/13 15:29:50;;;;;;;3.30;2.08;;;;;;;;;;4418784;79;28513;-83
2022/05/13 15:35:52;;;;;;;4.03;1.90;;;;;;;;;;4416008;79;28513;-77
2022/05/13 15:41:53;;;;;;;4.87;2.10;;;;;;;;;;4418197;80;28521;-77
2022/05/13 15:47:55;;;;;;;5.20;2.02;;;;;;;;;;4417297;79;28541;-75
2022/05/13 15:53:56;;;;;;;5.12;2.10;;;;;;;;;;4385770;79;28537;-76
2022/05/13 15:59:59;;;;;;;4.92;2.02;;;;;;;;;;4432326;79;28529;-79
2022/05/13 16:06:00;;;;;;;3.58;1.90;;;;;;;;;;4409897;79;28639;-75
2022/05/13 16:12:02;;;;;;;3.33;1.80;;;;;;;;;;4428671;79;28454;-76
2022/05/13 16:18:05;;;;;;;6.25;2.10;;;;;;;;;;4381164;80;28560;-77
2022/05/13 16:24:08;;;;;;;6.12;2.30;;;;;;;;;;4384586;80;28472;-77
2022/05/13 16:30:09;;;;;;;3.65;2.20;;;;;;;;;;4394068;80;28513;-77
2022/05/13 16:36:10;;;;;;;3.65;2.20;;;;;;;;;;4384768;79;28524;-76
2022/05/13 16:42:11;;;;;;;4.35;2.45;;;;;;;;;;4400660;79;28545;-76
2022/05/13 16:48:12;;;;;;;4.45;2.20;;;;;;;;;;4401894;79;28554;-76
2022/05/13 16:54:13;;;;;;;5.12;2.37;;;;;;;;;;4405225;79;29047;-76
2022/05/13 17:00:16;;;;;;;4.12;2.30;;;;;;;;;;4406840;79;28542;-76
2022/05/13 17:06:17;;;;;;;4.33;2.80;;;;;;;;;;4414823;79;28543;-77
2022/05/13 17:24:59;;;;;;;6.37;2.55;;;;;;;;;;4392515;79;28547;-76
2022/05/13 17:31:00;;;;;;;4.03;2.50;;;;;;;;;;4407270;79;28601;-76
2022/05/13 17:37:09;;;;;;;5.40;2.10;;;;;;;;;;4418419;79;28521;-76
2022/05/13 17:43:12;;;;;;;7.30;2.12;;;;;;;;;;4413766;79;28971;-77
2022/05/13 17:49:14;;;;;;;4.17;2.00;;;;;;;;;;4400969;79;28565;-77
2022/05/13 17:55:16;;;;;;;3.85;2.15;;;;;;;;;;4411197;79;28509;-76
2022/05/13 18:01:18;;;;;;;4.15;2.30;;;;;;;;;;4350756;79;28532;-77
2022/05/13 18:07:28;;;;;;;3.67;1.92;;;;;;;;;;4353389;79;28617;-76
2022/05/13 18:13:28;;;;;;;4.65;2.20;;;;;;;;;;4410405;79;28502;-77
2022/05/13 18:19:30;;;;;;;4.35;2.17;;;;;;;;;;4378958;79;28508;-80
2022/05/13 18:25:32;;;;;;;4.55;2.10;;;;;;;;;;4390124;79;28575;-78
2022/05/13 18:31:34;;;;;;;6.55;2.20;;;;;;;;;;4403509;79;28504;-80
2022/05/13 18:37:38;;;;;;;5.33;2.47;;;;;;;;;;4343955;80;43442;-81
2022/05/13 18:50:02;;;;;;;4.12;2.50;;;;;;;;;;4374164;79;28524;-80
2022/05/13 18:56:04;;;;;;;5.45;2.47;;;;;;;;;;4389860;79;28539;-81
2022/05/13 19:02:05;;;;;;;5.80;2.77;;;;;;;;;;4388813;79;28559;-79
2022/05/13 19:08:07;;;;;;;11.95;2.87;;;;;;;;;;4399278;79;28520;-79
2022/05/13 19:14:07;;;;;;;5.97;2.60;;;;;;;;;;4434891;79;28535;-80
2022/05/13 19:20:10;;;;;;;6.78;2.72;;;;;;;;;;4430387;79;28617;-78
2022/05/13 19:26:12;;;;;;;4.53;2.65;;;;;;;;;;4395128;79;28520;-79
2022/05/13 19:32:13;;;;;;;5.17;2.42;;;;;;;;;;4427636;79;28481;-81
2022/05/13 19:38:15;;;;;;;4.83;2.60;;;;;;;;;;4422755;79;28560;-79
2022/05/13 19:44:15;;;;;;;6.03;2.72;;;;;;;;;;4394855;79;28509;-79
2022/05/13 19:50:18;;;;;;;6.17;2.70;;;;;;;;;;4437721;79;28537;-78
2022/05/13 19:56:19;;;;;;;6.58;2.42;;;;;;;;;;4362574;81;28478;-80
2022/05/13 20:02:20;;;;;;;5.62;2.77;;;;;;;;;;4328795;81;28606;-76
2022/05/13 20:14:40;;;;;;;5.30;2.80;;;;;;;;;;4389770;81;28533;-81
2022/05/13 20:27:03;;;;;;;6.70;2.42;;;;;;;;;;4435015;80;28539;-79
2022/05/13 20:33:04;;;;;;;6.35;3.40;;;;;;;;;;4437010;80;28537;-80
2022/05/13 20:39:07;;;;;;;6.22;3.15;;;;;;;;;;4436338;80;28521;-80
2022/05/13 20:45:09;;;;;;;6.85;3.17;;;;;;;;;;4384083;80;28498;-80
2022/05/13 20:51:10;;;;;;;5.47;2.87;;;;;;;;;;4432884;80;28503;-80
2022/05/13 20:57:11;;;;;;;8.90;3.83;;;;;;;;;;4329556;82;28534;-79
2022/05/13 21:03:12;;;;;;;7.58;3.12;;;;;;;;;;4323729;82;28542;-80
2022/05/13 21:09:13;;;;;;;6.17;3.25;;;;;;;;;;4422658;80;28538;-80
2022/05/13 21:15:14;;;;;;;4.75;3.10;;;;;;;;;;4438989;80;28498;-79
2022/05/13 21:21:17;;;;;;;4.40;2.70;;;;;;;;;;4439331;80;28481;-80
2022/05/13 21:27:18;;;;;;;5.75;3.00;;;;;;;;;;4439527;80;28541;-80
2022/05/13 21:39:40;;;;;;;8.90;3.33;;;;;;;;;;4439124;80;28517;-80
2022/05/13 21:45:41;;;;;;;7.67;3.45;;;;;;;;;;4439742;80;28516;-79
2022/05/13 21:58:09;;;;;;;4.60;3.27;;;;;;;;;;4515920;79;28553;-80
2022/05/13 22:04:10;;;;;;;8.68;3.70;;;;;;;;;;4417776;79;28478;-80
2022/05/13 22:10:12;;;;;;;7.85;3.80;;;;;;;;;;4346725;82;28497;-78
2022/05/13 22:16:13;;;;;;;8.18;3.62;;;;;;;;;;4353727;80;28561;-78
2022/05/13 22:22:14;;;;;;;6.35;4.15;;;;;;;;;;4369872;81;28486;-79
2022/05/13 22:28:15;;;;;;;8.13;4.25;;;;;;;;;;4357951;82;28521;-79
2022/05/13 22:34:18;;;;;;;7.60;4.30;;;;;;;;;;4342513;82;28531;-79
2022/05/13 22:40:19;;;;;;;8.95;4.08;;;;;;;;;;4358116;80;28505;-79
2022/05/13 22:46:20;;;;;;;8.05;4.47;;;;;;;;;;4351994;82;28541;-79
2022/05/13 22:52:21;;;;;;;9.50;4.37;;;;;;;;;;4412768;80;28570;-80
2022/05/13 22:58:23;;;;;;;6.47;3.60;;;;;;;;;;4402098;81;28544;-79
2022/05/13 23:04:24;;;;;;;8.00;3.83;;;;;;;;;;4329163;81;28536;-80
2022/05/13 23:11:26;;;;;;;4.97;3.30;;;;;;;;;;4352587;79;28524;-78
2022/05/13 23:16:37;;;;;;;7.28;3.40;;;;;;;;;;4221938;84;28514;-78
2022/05/13 23:22:38;;;;;;;7.90;3.85;;;;;;;;;;4340627;82;28534;-78
2022/05/13 23:28:39;;;;;;;5.60;3.15;;;;;;;;;;4339948;82;28533;-78
2022/05/13 23:34:40;;;;;;;7.50;3.42;;;;;;;;;;4323747;80;28561;-80
2022/05/13 23:40:41;;;;;;;4.80;3.00;;;;;;;;;;4424367;80;28567;-81
2022/05/13 23:46:42;;;;;;;4.30;3.12;;;;;;;;;;4424386;80;28513;-81
2022/05/13 23:59:03;;;;;;;5.75;3.50;;;;;;;;;;4424114;80;28516;-81
